Woodstock, Tennessee
Current Conditions -  °F | °C
As of 5:50 AM on Friday 19 Dec 2014 (Local Time) from KNQA Reporting Station
Overcast Overcast  
Wind Chill: 39°   Ceiling: 2600
Heat Index: 39°   Visibility: 10mi
Dew Point: 37°   Wind: 3mph
Humidity: 93%   Direction: 30°NNE
Pressure: 30.24"   Gusts: NA
Location:  35.3343°N, 89.9316°W
Report Text: KNQA 191150Z 03003KT 10SM BKN026 OVC035 04/03 A3024
Loading
Personal Weather Stations






























Interactive Weather Map New forecast layout! Learn more

10-Day Weather Forecast

Advertisements
Track Severe Weather on mobile